sensor_id;sensor_type;location;lat;lon;timestamp;pressure;altitude;pressure_sealevel;temperature;humidity
76156;BME280;64906;51.290;7.348;2023-05-10T00:01:31;97896.47;;;20.75;47.35
76156;BME280;64906;51.290;7.348;2023-05-10T00:03:56;97901.13;;;20.74;47.05
76156;BME280;64906;51.290;7.348;2023-05-10T00:06:21;97892.59;;;20.76;46.94
76156;BME280;64906;51.290;7.348;2023-05-10T00:08:47;97893.53;;;20.71;46.96
76156;BME280;64906;51.290;7.348;2023-05-10T00:11:12;97897.75;;;20.77;47.26
76156;BME280;64906;51.290;7.348;2023-05-10T00:13:37;97889.34;;;20.74;47.17
76156;BME280;64906;51.290;7.348;2023-05-10T00:16:03;97897.56;;;20.74;47.16
76156;BME280;64906;51.290;7.348;2023-05-10T00:18:28;97896.78;;;20.73;46.87
76156;BME280;64906;51.290;7.348;2023-05-10T00:20:53;97899.53;;;20.73;46.98
76156;BME280;64906;51.290;7.348;2023-05-10T00:23:18;97896.78;;;20.73;47.27
76156;BME280;64906;51.290;7.348;2023-05-10T00:25:44;97899.84;;;20.72;46.91
76156;BME280;64906;51.290;7.348;2023-05-10T00:28:09;97901.44;;;20.73;46.97
76156;BME280;64906;51.290;7.348;2023-05-10T00:30:35;97894.81;;;20.74;46.96
76156;BME280;64906;51.290;7.348;2023-05-10T00:33:00;97890.47;;;20.73;47.04
76156;BME280;64906;51.290;7.348;2023-05-10T00:35:25;97890.47;;;20.73;46.99
76156;BME280;64906;51.290;7.348;2023-05-10T00:37:51;97896.59;;;20.70;47.40
76156;BME280;64906;51.290;7.348;2023-05-10T00:40:16;97889.97;;;20.71;47.32
76156;BME280;64906;51.290;7.348;2023-05-10T00:42:41;97890.28;;;20.69;46.98
76156;BME280;64906;51.290;7.348;2023-05-10T00:45:07;97888.69;;;20.68;46.65
76156;BME280;64906;51.290;7.348;2023-05-10T00:47:33;97889.97;;;20.71;46.83
76156;BME280;64906;51.290;7.348;2023-05-10T00:49:59;97891.44;;;20.68;47.03
76156;BME280;64906;51.290;7.348;2023-05-10T00:52:26;97890.28;;;20.69;47.21
76156;BME280;64906;51.290;7.348;2023-05-10T00:54:52;97888.69;;;20.68;46.88
76156;BME280;64906;51.290;7.348;2023-05-10T00:57:18;97888.19;;;20.66;46.95
76156;BME280;64906;51.290;7.348;2023-05-10T00:59:43;97891.75;;;20.67;46.89
76156;BME280;64906;51.290;7.348;2023-05-10T01:02:09;97890.13;;;20.66;46.82
76156;BME280;64906;51.290;7.348;2023-05-10T01:04:35;97883.34;;;20.63;47.15
76156;BME280;64906;51.290;7.348;2023-05-10T01:07:00;97889.00;;;20.67;46.96
76156;BME280;64906;51.290;7.348;2023-05-10T01:09:26;97891.25;;;20.65;46.79
76156;BME280;64906;51.290;7.348;2023-05-10T01:11:52;97889.00;;;20.67;46.82
76156;BME280;64906;51.290;7.348;2023-05-10T01:14:19;97883.84;;;20.65;46.90
76156;BME280;64906;51.290;7.348;2023-05-10T01:16:46;97887.69;;;20.64;47.14
76156;BME280;64906;51.290;7.348;2023-05-10T01:19:31;97888.50;;;20.65;46.98
76156;BME280;64906;51.290;7.348;2023-05-10T01:30:35;97895.59;;;20.66;46.94
76156;BME280;64906;51.290;7.348;2023-05-10T01:33:07;97902.22;;;20.65;46.82
76156;BME280;64906;51.290;7.348;2023-05-10T01:35:47;97901.41;;;20.64;46.88
76156;BME280;64906;51.290;7.348;2023-05-10T01:38:17;97898.97;;;20.63;46.86
76156;BME280;64906;51.290;7.348;2023-05-10T01:41:15;97899.78;;;20.63;47.15
76156;BME280;64906;51.290;7.348;2023-05-10T01:43:51;97907.19;;;20.63;47.02
76156;BME280;64906;51.290;7.348;2023-05-10T01:46:32;97903.34;;;20.64;46.69
76156;BME280;64906;51.290;7.348;2023-05-10T01:48:59;97903.66;;;20.62;47.15
76156;BME280;64906;51.290;7.348;2023-05-10T01:51:29;97908.34;;;20.62;47.03
76156;BME280;64906;51.290;7.348;2023-05-10T01:54:01;97904.47;;;20.63;46.68
76156;BME280;64906;51.290;7.348;2023-05-10T01:56:30;97909.16;;;20.62;47.02
76156;BME280;64906;51.290;7.348;2023-05-10T01:58:57;97903.66;;;20.62;46.64
76156;BME280;64906;51.290;7.348;2023-05-10T02:01:24;97908.66;;;20.60;46.93
76156;BME280;64906;51.290;7.348;2023-05-10T02:03:51;97909.75;;;20.59;47.02
76156;BME280;64906;51.290;7.348;2023-05-10T02:06:18;97896.88;;;20.60;46.96
76156;BME280;64906;51.290;7.348;2023-05-10T02:08:45;97905.09;;;20.60;47.09
76156;BME280;64906;51.290;7.348;2023-05-10T02:11:13;97902.66;;;20.58;46.61
76156;BME280;64906;51.290;7.348;2023-05-10T02:13:39;97912.50;;;20.59;46.69
76156;BME280;64906;51.290;7.348;2023-05-10T02:16:07;97911.72;;;20.59;46.61
76156;BME280;64906;51.290;7.348;2023-05-10T02:18:34;97908.97;;;20.59;47.02
76156;BME280;64906;51.290;7.348;2023-05-10T02:21:02;97916.38;;;20.58;46.76
76156;BME280;64906;51.290;7.348;2023-05-10T02:23:28;97920.72;;;20.59;47.04
76156;BME280;64906;51.290;7.348;2023-05-10T02:25:54;97909.28;;;20.57;46.89
76156;BME280;64906;51.290;7.348;2023-05-10T02:28:21;97921.03;;;20.58;46.69
76156;BME280;64906;51.290;7.348;2023-05-10T02:30:47;97919.44;;;20.57;46.58
76156;BME280;64906;51.290;7.348;2023-05-10T02:33:13;97916.69;;;20.57;46.87
76156;BME280;64906;51.290;7.348;2023-05-10T02:35:39;97921.03;;;20.58;46.66
76156;BME280;64906;51.290;7.348;2023-05-10T02:38:06;97921.16;;;20.53;46.80
76156;BME280;64906;51.290;7.348;2023-05-10T02:40:33;97918.94;;;20.55;47.00
76156;BME280;64906;51.290;7.348;2023-05-10T02:42:59;97919.25;;;20.53;46.63
76156;BME280;64906;51.290;7.348;2023-05-10T02:45:29;97928.28;;;20.54;46.63
76156;BME280;64906;51.290;7.348;2023-05-10T02:47:55;97929.41;;;20.53;46.68
76156;BME280;64906;51.290;7.348;2023-05-10T02:50:22;97924.72;;;20.53;46.73
76156;BME280;64906;51.290;7.348;2023-05-10T02:52:50;97939.75;;;20.56;46.78
76156;BME280;64906;51.290;7.348;2023-05-10T02:55:21;97935.69;;;20.53;46.44
76156;BME280;64906;51.290;7.348;2023-05-10T02:58:00;97937.94;;;20.51;47.05
76156;BME280;64906;51.290;7.348;2023-05-10T03:00:26;97937.16;;;20.51;46.96
76156;BME280;64906;51.290;7.348;2023-05-10T03:02:52;97936.00;;;20.52;46.75
76156;BME280;64906;51.290;7.348;2023-05-10T03:05:18;97931.34;;;20.52;46.81
76156;BME280;64906;51.290;7.348;2023-05-10T03:07:43;97929.91;;;20.55;46.90
76156;BME280;64906;51.290;7.348;2023-05-10T03:10:09;97939.88;;;20.51;46.72
76156;BME280;64906;51.290;7.348;2023-05-10T03:12:50;97939.56;;;20.52;46.76
76156;BME280;64906;51.290;7.348;2023-05-10T03:17:55;97940.69;;;20.51;46.54
76156;BME280;64906;51.290;7.348;2023-05-10T03:20:35;97935.81;;;20.48;46.63
76156;BME280;64906;51.290;7.348;2023-05-10T03:23:12;97943.75;;;20.50;46.90
76156;BME280;64906;51.290;7.348;2023-05-10T03:25:39;97948.13;;;20.51;46.71
76156;BME280;64906;51.290;7.348;2023-05-10T03:28:06;97945.97;;;20.48;46.71
76156;BME280;64906;51.290;7.348;2023-05-10T03:30:33;97955.03;;;20.48;46.79
76156;BME280;64906;51.290;7.348;2023-05-10T03:33:04;97955.34;;;20.47;47.15
76156;BME280;64906;51.290;7.348;2023-05-10T03:35:29;97952.59;;;20.47;46.67
76156;BME280;64906;51.290;7.348;2023-05-10T03:37:55;97953.09;;;20.49;46.71
76156;BME280;64906;51.290;7.348;2023-05-10T03:40:20;97963.56;;;20.47;46.70
76156;BME280;64906;51.290;7.348;2023-05-10T03:42:45;97965.16;;;20.48;46.61
76156;BME280;64906;51.290;7.348;2023-05-10T03:45:11;97965.47;;;20.46;46.75
76156;BME280;64906;51.290;7.348;2023-05-10T03:47:36;97961.94;;;20.46;47.04
76156;BME280;64906;51.290;7.348;2023-05-10T03:50:01;97972.09;;;20.45;46.81
76156;BME280;64906;51.290;7.348;2023-05-10T03:52:27;97963.56;;;20.47;46.53
76156;BME280;64906;51.290;7.348;2023-05-10T03:54:52;97958.91;;;20.47;46.47
76156;BME280;64906;51.290;7.348;2023-05-10T03:57:18;97972.59;;;20.47;46.51
76156;BME280;64906;51.290;7.348;2023-05-10T03:59:43;97974.03;;;20.45;46.63
76156;BME280;64906;51.290;7.348;2023-05-10T04:02:08;97980.31;;;20.45;46.80
76156;BME280;64906;51.290;7.348;2023-05-10T04:04:33;97973.22;;;20.44;46.69
76156;BME280;64906;51.290;7.348;2023-05-10T04:06:59;97977.06;;;20.43;46.88
76156;BME280;64906;51.290;7.348;2023-05-10T04:09:24;97970.19;;;20.46;46.86
76156;BME280;64906;51.290;7.348;2023-05-10T04:11:50;97977.91;;;20.44;46.42
76156;BME280;64906;51.290;7.348;2023-05-10T04:14:15;97970.50;;;20.44;46.57
76156;BME280;64906;51.290;7.348;2023-05-10T04:16:41;97973.22;;;20.44;46.76
76156;BME280;64906;51.290;7.348;2023-05-10T04:19:06;97969.66;;;20.44;46.65
76156;BME280;64906;51.290;7.348;2023-05-10T04:21:32;97970.50;;;20.44;47.00
76156;BME280;64906;51.290;7.348;2023-05-10T04:23:57;97966.09;;;20.43;46.58
76156;BME280;64906;51.290;7.348;2023-05-10T04:26:23;97973.22;;;20.44;46.42
76156;BME280;64906;51.290;7.348;2023-05-10T04:28:50;97968.53;;;20.45;46.79
76156;BME280;64906;51.290;7.348;2023-05-10T04:31:15;97974.03;;;20.45;46.39
76156;BME280;64906;51.290;7.348;2023-05-10T04:33:40;97984.97;;;20.45;46.89
76156;BME280;64906;51.290;7.348;2023-05-10T04:36:06;97979.81;;;20.43;46.81
76156;BME280;64906;51.290;7.348;2023-05-10T04:38:31;97979.81;;;20.43;46.40
76156;BME280;64906;51.290;7.348;2023-05-10T04:41:07;97976.56;;;20.41;46.54
76156;BME280;64906;51.290;7.348;2023-05-10T04:43:33;97981.25;;;20.41;46.41
76156;BME280;64906;51.290;7.348;2023-05-10T04:45:58;97986.44;;;20.42;46.63
76156;BME280;64906;51.290;7.348;2023-05-10T04:48:24;97983.19;;;20.40;46.80
76156;BME280;64906;51.290;7.348;2023-05-10T04:50:49;97989.50;;;20.41;46.61
76156;BME280;64906;51.290;7.348;2023-05-10T04:53:15;97989.19;;;20.42;46.53
76156;BME280;64906;51.290;7.348;2023-05-10T04:55:40;97997.41;;;20.42;46.52
76156;BME280;64906;51.290;7.348;2023-05-10T04:58:05;97993.34;;;20.40;46.51
76156;BME280;64906;51.290;7.348;2023-05-10T05:00:30;98005.63;;;20.42;46.46
76156;BME280;64906;51.290;7.348;2023-05-10T05:02:56;97994.16;;;20.40;46.37
76156;BME280;64906;51.290;7.348;2023-05-10T05:05:21;98000.94;;;20.43;46.67
76156;BME280;64906;51.290;7.348;2023-05-10T05:07:46;97997.72;;;20.41;46.75
76156;BME280;64906;51.290;7.348;2023-05-10T05:10:12;98007.84;;;20.40;46.58
76156;BME280;64906;51.290;7.348;2023-05-10T05:12:37;98006.56;;;20.38;46.80
76156;BME280;64906;51.290;7.348;2023-05-10T05:15:03;98009.31;;;20.38;46.91
76156;BME280;64906;51.290;7.348;2023-05-10T05:17:30;98013.66;;;20.39;46.73
76156;BME280;64906;51.290;7.348;2023-05-10T05:19:55;98004.28;;;20.40;46.40
76156;BME280;64906;51.290;7.348;2023-05-10T05:22:21;98016.72;;;20.37;46.50
76156;BME280;64906;51.290;7.348;2023-05-10T05:24:52;98010.41;;;20.37;46.42
76156;BME280;64906;51.290;7.348;2023-05-10T05:27:18;98017.53;;;20.38;46.44
76156;BME280;64906;51.290;7.348;2023-05-10T05:29:43;98017.53;;;20.38;46.64
76156;BME280;64906;51.290;7.348;2023-05-10T05:32:08;98014.78;;;20.38;46.75
76156;BME280;64906;51.290;7.348;2023-05-10T05:34:34;98019.44;;;20.37;46.58
76156;BME280;64906;51.290;7.348;2023-05-10T05:36:59;98021.06;;;20.38;46.65
76156;BME280;64906;51.290;7.348;2023-05-10T05:39:24;98023.00;;;20.38;46.51
76156;BME280;64906;51.290;7.348;2023-05-10T05:41:50;98032.03;;;20.38;46.53
76156;BME280;64906;51.290;7.348;2023-05-10T05:44:15;98021.06;;;20.38;46.63
76156;BME280;64906;51.290;7.348;2023-05-10T05:46:40;98023.50;;;20.40;46.64
76156;BME280;64906;51.290;7.348;2023-05-10T05:49:06;98022.50;;;20.36;46.59
76156;BME280;64906;51.290;7.348;2023-05-10T05:51:31;98033.97;;;20.38;46.23
76156;BME280;64906;51.290;7.348;2023-05-10T05:53:56;98032.84;;;20.39;46.20
76156;BME280;64906;51.290;7.348;2023-05-10T05:56:21;98031.72;;;20.40;46.64
76156;BME280;64906;51.290;7.348;2023-05-10T05:58:52;98033.97;;;20.38;46.57
76156;BME280;64906;51.290;7.348;2023-05-10T06:01:18;98038.63;;;20.37;46.39
76156;BME280;64906;51.290;7.348;2023-05-10T06:03:43;98038.63;;;20.37;46.63
76156;BME280;64906;51.290;7.348;2023-05-10T06:06:08;98041.69;;;20.36;46.58
76156;BME280;64906;51.290;7.348;2023-05-10T06:08:34;98049.59;;;20.37;46.70
76156;BME280;64906;51.290;7.348;2023-05-10T06:11:00;98043.81;;;20.39;46.12
76156;BME280;64906;51.290;7.348;2023-05-10T06:13:25;98060.56;;;20.37;46.17
76156;BME280;64906;51.290;7.348;2023-05-10T06:15:57;98062.81;;;20.35;46.58
76156;BME280;64906;51.290;7.348;2023-05-10T06:18:22;98069.63;;;20.38;46.35
76156;BME280;64906;51.290;7.348;2023-05-10T06:20:49;98073.13;;;20.38;46.35
76156;BME280;64906;51.290;7.348;2023-05-10T06:23:14;98071.22;;;20.39;46.68
76156;BME280;64906;51.290;7.348;2023-05-10T06:25:40;98069.31;;;20.39;46.50
76156;BME280;64906;51.290;7.348;2023-05-10T06:28:05;98076.41;;;20.40;46.40
76156;BME280;64906;51.290;7.348;2023-05-10T06:30:31;98072.34;;;20.38;46.58
76156;BME280;64906;51.290;7.348;2023-05-10T06:32:56;98075.56;;;20.40;46.08
76156;BME280;64906;51.290;7.348;2023-05-10T06:35:21;98070.09;;;20.40;46.40
76156;BME280;64906;51.290;7.348;2023-05-10T06:37:47;98074.47;;;20.41;46.65
76156;BME280;64906;51.290;7.348;2023-05-10T06:40:12;98067.84;;;20.42;46.47
76156;BME280;64906;51.290;7.348;2023-05-10T06:42:37;98074.16;;;20.42;46.22
76156;BME280;64906;51.290;7.348;2023-05-10T06:45:03;98074.94;;;20.43;46.38
76156;BME280;64906;51.290;7.348;2023-05-10T06:47:28;98079.34;;;20.44;46.17
76156;BME280;64906;51.290;7.348;2023-05-10T06:49:54;98077.41;;;20.44;46.35
76156;BME280;64906;51.290;7.348;2023-05-10T06:52:19;98082.06;;;20.44;46.27
76156;BME280;64906;51.290;7.348;2023-05-10T06:54:45;98075.25;;;20.41;46.37
76156;BME280;64906;51.290;7.348;2023-05-10T06:57:10;98083.06;;;20.48;45.96
76156;BME280;64906;51.290;7.348;2023-05-10T06:59:35;98084.38;;;20.50;46.19
76156;BME280;64906;51.290;7.348;2023-05-10T07:02:01;98087.13;;;20.50;46.19
76156;BME280;64906;51.290;7.348;2023-05-10T07:04:27;98094.22;;;20.51;46.20
76156;BME280;64906;51.290;7.348;2023-05-10T07:06:52;98095.03;;;20.52;46.25
76156;BME280;64906;51.290;7.348;2023-05-10T07:09:18;98094.72;;;20.53;46.21
76156;BME280;64906;51.290;7.348;2023-05-10T07:11:43;98095.88;;;20.52;45.96
76156;BME280;64906;51.290;7.348;2023-05-10T07:14:08;98098.91;;;20.51;46.25
76156;BME280;64906;51.290;7.348;2023-05-10T07:16:34;98096.97;;;20.51;46.13
76156;BME280;64906;51.290;7.348;2023-05-10T07:18:59;98100.53;;;20.52;45.93
76156;BME280;64906;51.290;7.348;2023-05-10T07:21:25;98098.91;;;20.51;46.42
76156;BME280;64906;51.290;7.348;2023-05-10T07:23:53;98101.34;;;20.52;46.19
76156;BME280;64906;51.290;7.348;2023-05-10T07:26:18;98101.34;;;20.52;45.92
76156;BME280;64906;51.290;7.348;2023-05-10T07:28:44;98104.41;;;20.51;46.09
76156;BME280;64906;51.290;7.348;2023-05-10T07:31:09;98109.88;;;20.51;45.99
76156;BME280;64906;51.290;7.348;2023-05-10T07:33:35;98102.88;;;20.45;45.97
76156;BME280;64906;51.290;7.348;2023-05-10T07:36:00;98109.06;;;20.50;46.05
76156;BME280;64906;51.290;7.348;2023-05-10T07:38:25;98108.25;;;20.50;46.03
76156;BME280;64906;51.290;7.348;2023-05-10T07:40:51;98108.25;;;20.50;45.76
76156;BME280;64906;51.290;7.348;2023-05-10T07:43:16;98114.03;;;20.48;46.27
76156;BME280;64906;51.290;7.348;2023-05-10T07:45:41;98114.84;;;20.49;46.34
76156;BME280;64906;51.290;7.348;2023-05-10T07:48:07;98112.91;;;20.49;46.34
76156;BME280;64906;51.290;7.348;2023-05-10T07:50:32;98113.09;;;20.53;46.18
76156;BME280;64906;51.290;7.348;2023-05-10T07:52:58;98118.13;;;20.51;46.93
76156;BME280;64906;51.290;7.348;2023-05-10T07:55:23;98118.38;;;20.49;47.02
76156;BME280;64906;51.290;7.348;2023-05-10T07:57:49;98123.09;;;20.49;46.53
76156;BME280;64906;51.290;7.348;2023-05-10T08:00:17;98125.81;;;20.49;46.65
76156;BME280;64906;51.290;7.348;2023-05-10T08:02:43;98127.13;;;20.51;46.72
76156;BME280;64906;51.290;7.348;2023-05-10T08:05:08;98127.84;;;20.57;47.65
76156;BME280;64906;51.290;7.348;2023-05-10T08:07:34;98127.31;;;20.55;47.97
76156;BME280;64906;51.290;7.348;2023-05-10T08:10:00;98126.50;;;20.54;48.60
76156;BME280;64906;51.290;7.348;2023-05-10T08:12:25;98138.28;;;20.55;48.85
76156;BME280;64906;51.290;7.348;2023-05-10T08:14:50;98135.44;;;20.60;48.47
76156;BME280;64906;51.290;7.348;2023-05-10T08:17:16;98134.81;;;20.63;48.61
76156;BME280;64906;51.290;7.348;2023-05-10T08:19:41;98139.50;;;20.62;48.37
76156;BME280;64906;51.290;7.348;2023-05-10T08:22:06;98138.38;;;20.63;48.09
76156;BME280;64906;51.290;7.348;2023-05-10T08:24:31;98136.78;;;20.62;47.83
76156;BME280;64906;51.290;7.348;2023-05-10T08:26:57;98143.56;;;20.65;48.37
76156;BME280;64906;51.290;7.348;2023-05-10T08:29:22;98139.69;;;20.66;48.46
76156;BME280;64906;51.290;7.348;2023-05-10T08:31:48;98142.94;;;20.68;48.38
76156;BME280;64906;51.290;7.348;2023-05-10T08:34:13;98140.06;;;20.73;47.96
76156;BME280;64906;51.290;7.348;2023-05-10T08:36:38;98143.31;;;20.75;47.83
76156;BME280;64906;51.290;7.348;2023-05-10T08:39:04;98147.69;;;20.76;47.81
76156;BME280;64906;51.290;7.348;2023-05-10T08:41:29;98147.88;;;20.79;47.77
76156;BME280;64906;51.290;7.348;2023-05-10T08:43:58;98147.94;;;20.88;47.31
76156;BME280;64906;51.290;7.348;2023-05-10T08:46:24;98148.78;;;20.88;47.33
76156;BME280;64906;51.290;7.348;2023-05-10T08:48:52;98152.31;;;20.89;47.32
76156;BME280;64906;51.290;7.348;2023-05-10T08:51:22;98146.81;;;20.89;47.47
76156;BME280;64906;51.290;7.348;2023-05-10T08:53:48;98155.25;;;20.92;47.53
76156;BME280;64906;51.290;7.348;2023-05-10T08:56:13;98152.31;;;20.89;47.34
76156;BME280;64906;51.290;7.348;2023-05-10T08:58:40;98158.63;;;20.89;47.53
76156;BME280;64906;51.290;7.348;2023-05-10T09:01:07;98165.91;;;20.94;47.46
76156;BME280;64906;51.290;7.348;2023-05-10T09:03:33;98158.19;;;20.96;47.02
76156;BME280;64906;51.290;7.348;2023-05-10T09:05:58;98159.53;;;20.98;47.43
76156;BME280;64906;51.290;7.348;2023-05-10T09:08:25;98169.06;;;21.01;47.19
76156;BME280;64906;51.290;7.348;2023-05-10T09:10:51;98172.31;;;21.03;46.85
76156;BME280;64906;51.290;7.348;2023-05-10T09:13:17;98176.38;;;21.05;46.75
76156;BME280;64906;51.290;7.348;2023-05-10T09:15:44;98170.88;;;21.05;46.94
76156;BME280;64906;51.290;7.348;2023-05-10T09:18:10;98164.09;;;21.03;46.70
76156;BME280;64906;51.290;7.348;2023-05-10T09:20:36;98166.66;;;20.99;47.09
76156;BME280;64906;51.290;7.348;2023-05-10T09:23:04;98163.41;;;20.97;47.15
76156;BME280;64906;51.290;7.348;2023-05-10T09:25:30;98168.56;;;20.99;46.76
76156;BME280;64906;51.290;7.348;2023-05-10T09:27:58;98172.31;;;21.03;46.67
76156;BME280;64906;51.290;7.348;2023-05-10T09:30:28;98172.81;;;21.05;46.69
76156;BME280;64906;51.290;7.348;2023-05-10T09:32:54;98175.75;;;21.08;46.69
76156;BME280;64906;51.290;7.348;2023-05-10T09:35:22;98174.63;;;21.09;46.76
76156;BME280;64906;51.290;7.348;2023-05-10T09:37:52;98171.78;;;21.14;46.31
76156;BME280;64906;51.290;7.348;2023-05-10T09:40:23;98179.69;;;21.16;46.43
76156;BME280;64906;51.290;7.348;2023-05-10T09:42:54;98185.00;;;21.12;46.78
76156;BME280;64906;51.290;7.348;2023-05-10T09:45:21;98185.63;;;21.09;47.13
76156;BME280;64906;51.290;7.348;2023-05-10T09:47:47;98193.66;;;21.06;47.06
76156;BME280;64906;51.290;7.348;2023-05-10T09:50:12;98190.41;;;21.04;47.36
76156;BME280;64906;51.290;7.348;2023-05-10T09:52:47;98196.41;;;21.06;48.47
76156;BME280;64906;51.290;7.348;2023-05-10T09:55:13;98194.97;;;21.08;47.99
76156;BME280;64906;51.290;7.348;2023-05-10T09:57:39;98190.28;;;21.09;48.02
76156;BME280;64906;51.290;7.348;2023-05-10T10:00:05;98193.22;;;21.12;47.93
76156;BME280;64906;51.290;7.348;2023-05-10T10:02:31;98189.53;;;21.17;47.78
76156;BME280;64906;51.290;7.348;2023-05-10T10:04:56;98193.91;;;21.18;47.73
76156;BME280;64906;51.290;7.348;2023-05-10T10:07:23;98197.66;;;21.22;47.68
76156;BME280;64906;51.290;7.348;2023-05-10T10:09:50;98190.56;;;21.21;47.35
76156;BME280;64906;51.290;7.348;2023-05-10T10:12:15;98198.94;;;21.24;47.46
76156;BME280;64906;51.290;7.348;2023-05-10T10:14:41;98194.28;;;21.25;47.79
76156;BME280;64906;51.290;7.348;2023-05-10T10:17:07;98193.47;;;21.24;47.86
76156;BME280;64906;51.290;7.348;2023-05-10T10:19:33;98198.94;;;21.24;47.36
76156;BME280;64906;51.290;7.348;2023-05-10T10:21:59;98191.22;;;21.26;47.59
76156;BME280;64906;51.290;7.348;2023-05-10T10:24:25;98193.06;;;21.31;47.38
76156;BME280;64906;51.290;7.348;2023-05-10T10:26:52;98202.72;;;21.28;47.81
76156;BME280;64906;51.290;7.348;2023-05-10T10:29:37;98199.78;;;21.25;47.55
76156;BME280;64906;51.290;7.348;2023-05-10T10:34:32;98206.19;;;21.20;47.44
76156;BME280;64906;51.290;7.348;2023-05-10T10:37:04;98223.81;;;21.19;47.75
76156;BME280;64906;51.290;7.348;2023-05-10T10:39:30;98210.88;;;21.20;47.69
76156;BME280;64906;51.290;7.348;2023-05-10T10:41:57;98218.78;;;21.21;47.51
76156;BME280;64906;51.290;7.348;2023-05-10T10:49:43;98225.09;;;21.22;47.20
76156;BME280;64906;51.290;7.348;2023-05-10T10:52:28;98221.22;;;21.23;47.14
76156;BME280;64906;51.290;7.348;2023-05-10T10:55:21;98214.94;;;21.22;47.37
76156;BME280;64906;51.290;7.348;2023-05-10T11:00:36;98219.94;;;21.20;47.28
76156;BME280;64906;51.290;7.348;2023-05-10T11:03:06;98227.97;;;21.17;47.51
76156;BME280;64906;51.290;7.348;2023-05-10T11:05:43;98228.66;;;21.22;46.98
76156;BME280;64906;51.290;7.348;2023-05-10T11:08:11;98231.91;;;21.24;46.84
76156;BME280;64906;51.290;7.348;2023-05-10T11:10:38;98234.63;;;21.24;47.25
76156;BME280;64906;51.290;7.348;2023-05-10T11:13:09;98225.09;;;21.22;46.72
76156;BME280;64906;51.290;7.348;2023-05-10T11:15:37;98231.09;;;21.24;47.19
76156;BME280;64906;51.290;7.348;2023-05-10T11:18:23;98228.88;;;21.26;46.80
76156;BME280;64906;51.290;7.348;2023-05-10T11:20:56;98233.22;;;21.27;47.19
76156;BME280;64906;51.290;7.348;2023-05-10T11:23:21;98234.25;;;21.31;46.77
76156;BME280;64906;51.290;7.348;2023-05-10T11:25:48;98232.47;;;21.35;46.65
76156;BME280;64906;51.290;7.348;2023-05-10T11:28:17;98241.84;;;21.34;46.65
76156;BME280;64906;51.290;7.348;2023-05-10T11:30:43;98221.72;;;21.25;46.51
76156;BME280;64906;51.290;7.348;2023-05-10T11:33:09;98233.41;;;21.30;47.02
76156;BME280;64906;51.290;7.348;2023-05-10T11:35:40;98246.84;;;21.32;46.48
76156;BME280;64906;51.290;7.348;2023-05-10T11:38:10;98245.69;;;21.33;46.45
76156;BME280;64906;51.290;7.348;2023-05-10T11:40:36;98253.94;;;21.33;46.64
76156;BME280;64906;51.290;7.348;2023-05-10T11:43:02;98246.00;;;21.31;46.78
76156;BME280;64906;51.290;7.348;2023-05-10T11:45:28;98260.25;;;21.33;46.67
76156;BME280;64906;51.290;7.348;2023-05-10T11:47:57;98255.25;;;21.36;46.60
76156;BME280;64906;51.290;7.348;2023-05-10T11:50:23;98258.00;;;21.36;46.53
76156;BME280;64906;51.290;7.348;2023-05-10T11:52:55;98260.44;;;21.37;46.29
76156;BME280;64906;51.290;7.348;2023-05-10T11:55:21;98266.91;;;21.41;46.56
76156;BME280;64906;51.290;7.348;2023-05-10T11:57:47;98263.06;;;21.42;46.20
76156;BME280;64906;51.290;7.348;2023-05-10T12:00:13;98266.59;;;21.43;46.14
76156;BME280;64906;51.290;7.348;2023-05-10T12:02:39;98259.19;;;21.43;46.38
76156;BME280;64906;51.290;7.348;2023-05-10T12:05:06;98259.19;;;21.43;46.43
76156;BME280;64906;51.290;7.348;2023-05-10T12:07:31;98269.53;;;21.46;45.98
76156;BME280;64906;51.290;7.348;2023-05-10T12:12:37;98265.06;;;21.50;45.89
76156;BME280;64906;51.290;7.348;2023-05-10T12:15:04;98254.09;;;21.50;45.79
76156;BME280;64906;51.290;7.348;2023-05-10T12:17:31;98265.88;;;21.51;46.13
76156;BME280;64906;51.290;7.348;2023-05-10T12:20:19;98263.00;;;21.56;46.03
76156;BME280;64906;51.290;7.348;2023-05-10T12:22:56;98267.69;;;21.55;45.96
76156;BME280;64906;51.290;7.348;2023-05-10T12:25:23;98263.19;;;21.59;45.70
76156;BME280;64906;51.290;7.348;2023-05-10T12:27:54;98273.06;;;21.60;45.82
76156;BME280;64906;51.290;7.348;2023-05-10T12:30:31;98268.69;;;21.59;45.69
76156;BME280;64906;51.290;7.348;2023-05-10T12:33:10;98266.44;;;21.61;45.59
76156;BME280;64906;51.290;7.348;2023-05-10T12:35:47;98268.03;;;21.62;45.68
76156;BME280;64906;51.290;7.348;2023-05-10T12:38:33;98265.94;;;21.59;46.06
76156;BME280;64906;51.290;7.348;2023-05-10T12:41:04;98270.31;;;21.60;45.60
76156;BME280;64906;51.290;7.348;2023-05-10T12:43:30;98275.81;;;21.60;45.95
76156;BME280;64906;51.290;7.348;2023-05-10T12:45:55;98284.84;;;21.61;45.69
76156;BME280;64906;51.290;7.348;2023-05-10T12:48:21;98280.78;;;21.58;45.47
76156;BME280;64906;51.290;7.348;2023-05-10T12:50:47;98288.84;;;21.55;45.99
76156;BME280;64906;51.290;7.348;2023-05-10T12:53:15;98284.81;;;21.52;45.78
76156;BME280;64906;51.290;7.348;2023-05-10T12:55:42;98294.97;;;21.52;45.69
76156;BME280;64906;51.290;7.348;2023-05-10T12:58:07;98293.63;;;21.49;46.03
76156;BME280;64906;51.290;7.348;2023-05-10T13:00:33;98292.03;;;21.48;46.08
76156;BME280;64906;51.290;7.348;2023-05-10T13:02:58;98291.50;;;21.46;46.04
76156;BME280;64906;51.290;7.348;2023-05-10T13:05:23;98298.66;;;21.47;45.80
76156;BME280;64906;51.290;7.348;2023-05-10T13:07:49;98300.56;;;21.47;45.81
76156;BME280;64906;51.290;7.348;2023-05-10T13:10:14;98298.66;;;21.47;46.04
76156;BME280;64906;51.290;7.348;2023-05-10T13:12:39;98299.44;;;21.48;46.03
76156;BME280;64906;51.290;7.348;2023-05-10T13:15:05;98293.63;;;21.49;45.68
76156;BME280;64906;51.290;7.348;2023-05-10T13:17:31;98292.53;;;21.50;46.12
76156;BME280;64906;51.290;7.348;2023-05-10T13:19:57;98301.28;;;21.52;45.77
76156;BME280;64906;51.290;7.348;2023-05-10T13:22:22;98295.78;;;21.52;45.62
76156;BME280;64906;51.290;7.348;2023-05-10T13:24:47;98296.56;;;21.53;45.56